sensor_id;sensor_type;location;lat;lon;timestamp;pressure;altitude;pressure_sealevel;temperature
51149;BMP280;37210;50.058;8.688;2023-05-19T00:00:12;100961.94;;;12.43
51149;BMP280;37210;50.058;8.688;2023-05-19T00:02:40;100996.56;;;11.80
51149;BMP280;37210;50.058;8.688;2023-05-19T00:05:09;100983.72;;;12.22
51149;BMP280;37210;50.058;8.688;2023-05-19T00:07:40;100985.19;;;11.76
51149;BMP280;37210;50.058;8.688;2023-05-19T00:10:11;100987.31;;;12.45
51149;BMP280;37210;50.058;8.688;2023-05-19T00:12:40;100995.19;;;12.48
51149;BMP280;37210;50.058;8.688;2023-05-19T00:15:12;100918.00;;;11.98
51149;BMP280;37210;50.058;8.688;2023-05-19T00:17:40;101001.41;;;11.38
51149;BMP280;37210;50.058;8.688;2023-05-19T00:20:08;101004.44;;;11.81
51149;BMP280;37210;50.058;8.688;2023-05-19T00:22:37;100997.69;;;12.18
51149;BMP280;37210;50.058;8.688;2023-05-19T00:25:06;100991.31;;;11.78
51149;BMP280;37210;50.058;8.688;2023-05-19T00:27:33;100973.19;;;12.21
51149;BMP280;37210;50.058;8.688;2023-05-19T00:30:01;101001.13;;;12.14
51149;BMP280;37210;50.058;8.688;2023-05-19T00:32:29;100995.56;;;11.66
51149;BMP280;37210;50.058;8.688;2023-05-19T00:34:58;100993.75;;;11.57
51149;BMP280;37210;50.058;8.688;2023-05-19T00:37:26;100968.44;;;11.62
51149;BMP280;37210;50.058;8.688;2023-05-19T00:39:53;100916.13;;;11.70
51149;BMP280;37210;50.058;8.688;2023-05-19T00:42:20;100965.75;;;11.53
51149;BMP280;37210;50.058;8.688;2023-05-19T00:44:48;100961.38;;;11.54
51149;BMP280;37210;50.058;8.688;2023-05-19T00:47:15;100983.16;;;11.47
51149;BMP280;37210;50.058;8.688;2023-05-19T00:49:44;100901.66;;;11.12
51149;BMP280;37210;50.058;8.688;2023-05-19T00:52:12;100955.25;;;11.49
51149;BMP280;37210;50.058;8.688;2023-05-19T00:54:39;100945.44;;;11.23
51149;BMP280;37210;50.058;8.688;2023-05-19T00:57:07;100964.03;;;11.55
51149;BMP280;37210;50.058;8.688;2023-05-19T00:59:34;100972.59;;;11.36
51149;BMP280;37210;50.058;8.688;2023-05-19T01:02:03;100980.75;;;11.68
51149;BMP280;37210;50.058;8.688;2023-05-19T01:04:32;100846.47;;;10.85
51149;BMP280;37210;50.058;8.688;2023-05-19T01:07:04;100977.88;;;11.44
51149;BMP280;37210;50.058;8.688;2023-05-19T01:09:31;100993.66;;;11.45
51149;BMP280;37210;50.058;8.688;2023-05-19T01:12:00;100721.50;;;9.63
51149;BMP280;37210;50.058;8.688;2023-05-19T01:14:28;100966.38;;;11.22
51149;BMP280;37210;50.058;8.688;2023-05-19T01:17:00;100851.22;;;10.32
51149;BMP280;37210;50.058;8.688;2023-05-19T01:19:48;100977.94;;;11.48
51149;BMP280;37210;50.058;8.688;2023-05-19T01:22:35;100751.75;;;10.21
51149;BMP280;37210;50.058;8.688;2023-05-19T01:28:30;100893.75;;;11.03
51149;BMP280;37210;50.058;8.688;2023-05-19T01:31:08;100935.09;;;11.39
51149;BMP280;37210;50.058;8.688;2023-05-19T01:33:39;100971.91;;;11.57
51149;BMP280;37210;50.058;8.688;2023-05-19T01:36:08;100928.69;;;11.06
51149;BMP280;37210;50.058;8.688;2023-05-19T01:38:38;100970.78;;;11.26
51149;BMP280;37210;50.058;8.688;2023-05-19T01:41:08;100953.81;;;10.89
51149;BMP280;37210;50.058;8.688;2023-05-19T01:43:37;100882.06;;;10.63
51149;BMP280;37210;50.058;8.688;2023-05-19T01:46:07;100972.47;;;11.19
51149;BMP280;37210;50.058;8.688;2023-05-19T01:48:36;100910.31;;;11.00
51149;BMP280;37210;50.058;8.688;2023-05-19T01:51:04;100954.03;;;11.12
51149;BMP280;37210;50.058;8.688;2023-05-19T01:53:31;100976.59;;;10.99
51149;BMP280;37210;50.058;8.688;2023-05-19T01:55:59;100893.09;;;10.36
51149;BMP280;37210;50.058;8.688;2023-05-19T01:58:33;100937.03;;;10.68
51149;BMP280;37210;50.058;8.688;2023-05-19T02:01:11;100974.13;;;11.13
51149;BMP280;37210;50.058;8.688;2023-05-19T02:03:56;100957.16;;;10.73
51149;BMP280;37210;50.058;8.688;2023-05-19T02:06:39;100984.44;;;10.96
51149;BMP280;37210;50.058;8.688;2023-05-19T02:09:15;100951.97;;;10.76
51149;BMP280;37210;50.058;8.688;2023-05-19T02:11:53;100871.38;;;10.42
51149;BMP280;37210;50.058;8.688;2023-05-19T02:14:29;100912.69;;;10.75
51149;BMP280;37210;50.058;8.688;2023-05-19T02:17:03;100886.41;;;10.61
51149;BMP280;37210;50.058;8.688;2023-05-19T02:19:33;100973.94;;;10.93
51149;BMP280;37210;50.058;8.688;2023-05-19T02:22:01;100981.88;;;11.04
51149;BMP280;37210;50.058;8.688;2023-05-19T02:24:29;100948.34;;;10.65
51149;BMP280;37210;50.058;8.688;2023-05-19T02:26:58;100985.56;;;11.22
51149;BMP280;37210;50.058;8.688;2023-05-19T02:29:25;100931.25;;;10.99
51149;BMP280;37210;50.058;8.688;2023-05-19T02:31:53;100980.50;;;10.55
51149;BMP280;37210;50.058;8.688;2023-05-19T02:34:22;100980.84;;;10.85
51149;BMP280;37210;50.058;8.688;2023-05-19T02:36:49;100985.16;;;10.83
51149;BMP280;37210;50.058;8.688;2023-05-19T02:39:17;100955.19;;;10.54
51149;BMP280;37210;50.058;8.688;2023-05-19T02:41:44;100975.28;;;10.58
51149;BMP280;37210;50.058;8.688;2023-05-19T02:44:12;100964.81;;;10.58
51149;BMP280;37210;50.058;8.688;2023-05-19T02:46:39;100807.56;;;9.53
51149;BMP280;37210;50.058;8.688;2023-05-19T02:49:07;100899.09;;;10.28
51149;BMP280;37210;50.058;8.688;2023-05-19T02:51:35;100820.09;;;9.83
51149;BMP280;37210;50.058;8.688;2023-05-19T02:54:03;100963.22;;;10.71
51149;BMP280;37210;50.058;8.688;2023-05-19T02:56:30;100723.81;;;8.76
51149;BMP280;37210;50.058;8.688;2023-05-19T02:58:58;100960.16;;;10.33
51149;BMP280;37210;50.058;8.688;2023-05-19T03:01:25;100946.44;;;10.52
51149;BMP280;37210;50.058;8.688;2023-05-19T03:03:53;100962.50;;;10.12
51149;BMP280;37210;50.058;8.688;2023-05-19T03:06:20;100956.66;;;10.31
51149;BMP280;37210;50.058;8.688;2023-05-19T03:08:50;100952.44;;;10.40
51149;BMP280;37210;50.058;8.688;2023-05-19T03:11:18;100876.50;;;9.67
51149;BMP280;37210;50.058;8.688;2023-05-19T03:13:45;100957.03;;;10.60
51149;BMP280;37210;50.058;8.688;2023-05-19T03:16:13;100915.78;;;10.39
51149;BMP280;37210;50.058;8.688;2023-05-19T03:18:40;100867.84;;;9.71
51149;BMP280;37210;50.058;8.688;2023-05-19T03:21:08;100962.53;;;10.13
51149;BMP280;37210;50.058;8.688;2023-05-19T03:23:35;100954.38;;;9.94
51149;BMP280;37210;50.058;8.688;2023-05-19T03:26:04;100954.47;;;10.00
51149;BMP280;37210;50.058;8.688;2023-05-19T03:28:32;100969.72;;;10.28
51149;BMP280;37210;50.058;8.688;2023-05-19T03:30:59;100936.75;;;10.42
51149;BMP280;37210;50.058;8.688;2023-05-19T03:33:32;100933.09;;;10.29
51149;BMP280;37210;50.058;8.688;2023-05-19T03:36:00;100960.28;;;10.42
51149;BMP280;37210;50.058;8.688;2023-05-19T03:38:32;100940.91;;;9.65
51149;BMP280;37210;50.058;8.688;2023-05-19T03:41:00;100904.94;;;10.07
51149;BMP280;37210;50.058;8.688;2023-05-19T03:43:29;100964.34;;;10.17
51149;BMP280;37210;50.058;8.688;2023-05-19T03:46:01;100966.41;;;10.44
51149;BMP280;37210;50.058;8.688;2023-05-19T03:48:48;100778.97;;;9.01
51149;BMP280;37210;50.058;8.688;2023-05-19T03:51:19;100917.78;;;9.91
51149;BMP280;37210;50.058;8.688;2023-05-19T03:53:49;100969.25;;;9.99
51149;BMP280;37210;50.058;8.688;2023-05-19T03:56:18;100972.38;;;10.32
51149;BMP280;37210;50.058;8.688;2023-05-19T03:58:50;100768.94;;;9.31
51149;BMP280;37210;50.058;8.688;2023-05-19T04:01:20;100927.81;;;10.25
51149;BMP280;37210;50.058;8.688;2023-05-19T04:03:48;100901.06;;;9.78
51149;BMP280;37210;50.058;8.688;2023-05-19T04:06:15;100871.50;;;9.84
51149;BMP280;37210;50.058;8.688;2023-05-19T04:08:44;100921.63;;;10.17
51149;BMP280;37210;50.058;8.688;2023-05-19T04:11:12;100944.00;;;9.97
51149;BMP280;37210;50.058;8.688;2023-05-19T04:13:40;100927.81;;;10.26
51149;BMP280;37210;50.058;8.688;2023-05-19T04:16:09;100739.69;;;8.93
51149;BMP280;37210;50.058;8.688;2023-05-19T04:18:37;100964.69;;;10.46
51149;BMP280;37210;50.058;8.688;2023-05-19T04:21:04;100972.47;;;10.38
51149;BMP280;37210;50.058;8.688;2023-05-19T04:23:33;100970.81;;;10.45
51149;BMP280;37210;50.058;8.688;2023-05-19T04:26:01;100973.50;;;10.54
51149;BMP280;37210;50.058;8.688;2023-05-19T04:28:28;100933.03;;;10.23
51149;BMP280;37210;50.058;8.688;2023-05-19T04:30:56;100968.19;;;10.48
51149;BMP280;37210;50.058;8.688;2023-05-19T04:33:26;100977.00;;;10.53
51149;BMP280;37210;50.058;8.688;2023-05-19T04:35:54;100970.88;;;10.54
51149;BMP280;37210;50.058;8.688;2023-05-19T04:38:23;100978.59;;;10.43
51149;BMP280;37210;50.058;8.688;2023-05-19T04:40:51;100819.72;;;9.51
51149;BMP280;37210;50.058;8.688;2023-05-19T04:43:18;100799.09;;;9.74
51149;BMP280;37210;50.058;8.688;2023-05-19T04:45:47;100939.56;;;10.59
51149;BMP280;37210;50.058;8.688;2023-05-19T04:48:16;100754.38;;;9.49
51149;BMP280;37210;50.058;8.688;2023-05-19T04:50:48;100990.50;;;10.92
51149;BMP280;37210;50.058;8.688;2023-05-19T04:53:17;100977.31;;;10.83
51149;BMP280;37210;50.058;8.688;2023-05-19T04:55:46;100972.91;;;10.76
51149;BMP280;37210;50.058;8.688;2023-05-19T04:58:15;100981.09;;;11.12
51149;BMP280;37210;50.058;8.688;2023-05-19T05:00:43;100938.38;;;11.13
51149;BMP280;37210;50.058;8.688;2023-05-19T05:03:11;100867.97;;;10.49
51149;BMP280;37210;50.058;8.688;2023-05-19T05:05:40;100937.91;;;10.67
51149;BMP280;37210;50.058;8.688;2023-05-19T05:08:10;100986.44;;;11.24
51149;BMP280;37210;50.058;8.688;2023-05-19T05:10:41;100878.91;;;11.00
51149;BMP280;37210;50.058;8.688;2023-05-19T05:13:09;100958.13;;;11.85
51149;BMP280;37210;50.058;8.688;2023-05-19T05:15:38;100924.94;;;11.84
51149;BMP280;37210;50.058;8.688;2023-05-19T05:18:06;100985.47;;;12.28
51149;BMP280;37210;50.058;8.688;2023-05-19T05:20:35;100958.28;;;12.12
51149;BMP280;37210;50.058;8.688;2023-05-19T05:23:04;100933.47;;;11.59
51149;BMP280;37210;50.058;8.688;2023-05-19T05:25:36;100956.97;;;11.47
51149;BMP280;37210;50.058;8.688;2023-05-19T05:28:04;100949.50;;;12.01
51149;BMP280;37210;50.058;8.688;2023-05-19T05:30:35;100910.38;;;12.49
51149;BMP280;37210;50.058;8.688;2023-05-19T05:33:04;100934.91;;;12.71
51149;BMP280;37210;50.058;8.688;2023-05-19T05:35:36;100976.97;;;12.92
51149;BMP280;37210;50.058;8.688;2023-05-19T05:38:05;100976.84;;;12.54
51149;BMP280;37210;50.058;8.688;2023-05-19T05:40:34;100956.91;;;13.21
51149;BMP280;37210;50.058;8.688;2023-05-19T05:43:03;100968.28;;;13.28
51149;BMP280;37210;50.058;8.688;2023-05-19T05:45:34;100969.03;;;12.77
51149;BMP280;37210;50.058;8.688;2023-05-19T05:48:03;100963.03;;;13.34
51149;BMP280;37210;50.058;8.688;2023-05-19T05:50:32;100917.50;;;13.41
51149;BMP280;37210;50.058;8.688;2023-05-19T05:53:02;100932.31;;;13.86
51149;BMP280;37210;50.058;8.688;2023-05-19T05:55:33;100931.28;;;14.27
51149;BMP280;37210;50.058;8.688;2023-05-19T05:58:02;100958.50;;;14.29
51149;BMP280;37210;50.058;8.688;2023-05-19T06:00:30;100942.72;;;14.29
51149;BMP280;37210;50.058;8.688;2023-05-19T06:02:59;100880.47;;;14.18
51149;BMP280;37210;50.058;8.688;2023-05-19T06:05:30;100950.78;;;15.49
51149;BMP280;37210;50.058;8.688;2023-05-19T06:07:58;100932.81;;;14.78
51149;BMP280;37210;50.058;8.688;2023-05-19T06:10:27;100872.53;;;15.48
51149;BMP280;37210;50.058;8.688;2023-05-19T06:12:54;100944.06;;;15.03
51149;BMP280;37210;50.058;8.688;2023-05-19T06:15:24;100873.34;;;14.46
51149;BMP280;37210;50.058;8.688;2023-05-19T06:18:00;100945.53;;;15.48
51149;BMP280;37210;50.058;8.688;2023-05-19T06:20:28;100964.13;;;15.23
51149;BMP280;37210;50.058;8.688;2023-05-19T06:22:59;100935.31;;;15.99
51149;BMP280;37210;50.058;8.688;2023-05-19T06:25:29;100922.34;;;15.78
51149;BMP280;37210;50.058;8.688;2023-05-19T06:27:57;100952.34;;;15.70
51149;BMP280;37210;50.058;8.688;2023-05-19T06:30:28;100944.81;;;16.13
51149;BMP280;37210;50.058;8.688;2023-05-19T06:33:08;100732.72;;;13.24
51149;BMP280;37210;50.058;8.688;2023-05-19T06:35:35;100930.34;;;15.71
51149;BMP280;37210;50.058;8.688;2023-05-19T06:38:03;100799.63;;;14.44
51149;BMP280;37210;50.058;8.688;2023-05-19T06:40:31;100946.34;;;15.51
51149;BMP280;37210;50.058;8.688;2023-05-19T06:42:59;100756.72;;;14.36
51149;BMP280;37210;50.058;8.688;2023-05-19T06:45:48;100781.63;;;15.00
51149;BMP280;37210;50.058;8.688;2023-05-19T06:48:16;100913.69;;;16.40
51149;BMP280;37210;50.058;8.688;2023-05-19T06:50:44;100902.66;;;16.10
51149;BMP280;37210;50.058;8.688;2023-05-19T06:53:15;100847.88;;;16.27
51149;BMP280;37210;50.058;8.688;2023-05-19T06:55:46;100931.56;;;16.87
51149;BMP280;37210;50.058;8.688;2023-05-19T06:58:21;100870.91;;;15.34
51149;BMP280;37210;50.058;8.688;2023-05-19T07:00:50;100856.78;;;16.20
51149;BMP280;37210;50.058;8.688;2023-05-19T07:03:25;100815.00;;;14.98
51149;BMP280;37210;50.058;8.688;2023-05-19T07:05:54;100913.31;;;16.69
51149;BMP280;37210;50.058;8.688;2023-05-19T07:08:24;100936.44;;;15.79
51149;BMP280;37210;50.058;8.688;2023-05-19T07:10:52;100932.84;;;15.81
51149;BMP280;37210;50.058;8.688;2023-05-19T07:13:21;100881.69;;;17.19
51149;BMP280;37210;50.058;8.688;2023-05-19T07:15:50;100904.09;;;17.49
51149;BMP280;37210;50.058;8.688;2023-05-19T07:18:20;100917.63;;;17.32
51149;BMP280;37210;50.058;8.688;2023-05-19T07:20:48;100906.34;;;17.21
51149;BMP280;37210;50.058;8.688;2023-05-19T07:23:17;100915.22;;;17.17
51149;BMP280;37210;50.058;8.688;2023-05-19T07:25:46;100899.56;;;17.05
51149;BMP280;37210;50.058;8.688;2023-05-19T07:28:13;100887.22;;;16.49
51149;BMP280;37210;50.058;8.688;2023-05-19T07:30:41;100918.38;;;16.19
51149;BMP280;37210;50.058;8.688;2023-05-19T07:33:10;100923.88;;;15.99
51149;BMP280;37210;50.058;8.688;2023-05-19T07:35:38;100912.56;;;15.88
51149;BMP280;37210;50.058;8.688;2023-05-19T07:38:05;100901.84;;;15.12
51149;BMP280;37210;50.058;8.688;2023-05-19T07:40:33;100892.47;;;15.76
51149;BMP280;37210;50.058;8.688;2023-05-19T07:43:00;100895.06;;;15.82
51149;BMP280;37210;50.058;8.688;2023-05-19T07:45:28;100906.47;;;15.84
51149;BMP280;37210;50.058;8.688;2023-05-19T07:47:55;100883.28;;;16.12
51149;BMP280;37210;50.058;8.688;2023-05-19T07:50:24;100895.22;;;15.66
51149;BMP280;37210;50.058;8.688;2023-05-19T07:52:51;100903.13;;;15.67
51149;BMP280;37210;50.058;8.688;2023-05-19T07:55:19;100888.28;;;16.33
51149;BMP280;37210;50.058;8.688;2023-05-19T07:57:48;100897.59;;;15.91
51149;BMP280;37210;50.058;8.688;2023-05-19T08:00:16;100886.84;;;16.08
51149;BMP280;37210;50.058;8.688;2023-05-19T08:02:44;100879.34;;;16.42
51149;BMP280;37210;50.058;8.688;2023-05-19T08:05:11;100893.31;;;16.53
51149;BMP280;37210;50.058;8.688;2023-05-19T08:07:40;100877.75;;;16.93
51149;BMP280;37210;50.058;8.688;2023-05-19T08:10:08;100866.31;;;17.42
51149;BMP280;37210;50.058;8.688;2023-05-19T08:12:36;100869.56;;;17.08
51149;BMP280;37210;50.058;8.688;2023-05-19T08:15:04;100880.41;;;17.43
51149;BMP280;37210;50.058;8.688;2023-05-19T08:17:32;100881.50;;;17.31
51149;BMP280;37210;50.058;8.688;2023-05-19T08:19:59;100883.72;;;17.57
51149;BMP280;37210;50.058;8.688;2023-05-19T08:22:26;100851.16;;;17.53
51149;BMP280;37210;50.058;8.688;2023-05-19T08:24:55;100850.06;;;18.86
51149;BMP280;37210;50.058;8.688;2023-05-19T08:27:23;100864.41;;;18.79
51149;BMP280;37210;50.058;8.688;2023-05-19T08:29:50;100860.75;;;18.83
51149;BMP280;37210;50.058;8.688;2023-05-19T08:32:18;100859.50;;;18.19
51149;BMP280;37210;50.058;8.688;2023-05-19T08:34:45;100851.91;;;18.04
51149;BMP280;37210;50.058;8.688;2023-05-19T08:37:13;100847.88;;;19.40
51149;BMP280;37210;50.058;8.688;2023-05-19T08:39:41;100827.78;;;19.62
51149;BMP280;37210;50.058;8.688;2023-05-19T08:42:10;100829.88;;;20.12
51149;BMP280;37210;50.058;8.688;2023-05-19T08:44:38;100835.50;;;19.03
51149;BMP280;37210;50.058;8.688;2023-05-19T08:47:07;100839.09;;;17.85
51149;BMP280;37210;50.058;8.688;2023-05-19T08:49:42;100829.72;;;19.22
51149;BMP280;37210;50.058;8.688;2023-05-19T08:52:18;100810.63;;;19.73
51149;BMP280;37210;50.058;8.688;2023-05-19T08:54:52;100811.31;;;19.15
51149;BMP280;37210;50.058;8.688;2023-05-19T08:57:28;100751.63;;;19.33
51149;BMP280;37210;50.058;8.688;2023-05-19T08:59:58;100802.16;;;19.91
51149;BMP280;37210;50.058;8.688;2023-05-19T09:02:26;100784.28;;;20.27
51149;BMP280;37210;50.058;8.688;2023-05-19T09:04:54;100803.72;;;19.37
51149;BMP280;37210;50.058;8.688;2023-05-19T09:07:23;100808.94;;;20.02
51149;BMP280;37210;50.058;8.688;2023-05-19T09:09:51;100808.44;;;19.89
51149;BMP280;37210;50.058;8.688;2023-05-19T09:12:19;100772.91;;;19.93
51149;BMP280;37210;50.058;8.688;2023-05-19T09:14:48;100797.31;;;20.62
51149;BMP280;37210;50.058;8.688;2023-05-19T09:17:16;100805.31;;;19.75
51149;BMP280;37210;50.058;8.688;2023-05-19T09:19:44;100794.28;;;20.47
51149;BMP280;37210;50.058;8.688;2023-05-19T09:22:14;100796.63;;;19.99
51149;BMP280;37210;50.058;8.688;2023-05-19T09:24:44;100791.13;;;20.05
51149;BMP280;37210;50.058;8.688;2023-05-19T09:27:13;100774.78;;;18.93
51149;BMP280;37210;50.058;8.688;2023-05-19T09:29:42;100791.03;;;19.14
51149;BMP280;37210;50.058;8.688;2023-05-19T09:32:11;100784.78;;;19.15
51149;BMP280;37210;50.058;8.688;2023-05-19T09:34:39;100802.19;;;19.27
51149;BMP280;37210;50.058;8.688;2023-05-19T09:37:11;100805.13;;;19.50
51149;BMP280;37210;50.058;8.688;2023-05-19T09:39:39;100800.25;;;19.32
51149;BMP280;37210;50.058;8.688;2023-05-19T09:42:06;100781.19;;;20.12
51149;BMP280;37210;50.058;8.688;2023-05-19T09:44:34;100794.22;;;18.93
51149;BMP280;37210;50.058;8.688;2023-05-19T09:47:01;100761.75;;;19.19
51149;BMP280;37210;50.058;8.688;2023-05-19T09:49:30;100763.50;;;19.51
51149;BMP280;37210;50.058;8.688;2023-05-19T09:52:01;100781.56;;;19.38
51149;BMP280;37210;50.058;8.688;2023-05-19T09:54:29;100774.63;;;19.33
51149;BMP280;37210;50.058;8.688;2023-05-19T09:56:57;100762.13;;;19.68
51149;BMP280;37210;50.058;8.688;2023-05-19T09:59:27;100775.84;;;19.53
51149;BMP280;37210;50.058;8.688;2023-05-19T10:01:56;100761.88;;;18.43
51149;BMP280;37210;50.058;8.688;2023-05-19T10:04:27;100767.84;;;19.84
51149;BMP280;37210;50.058;8.688;2023-05-19T10:06:57;100754.47;;;20.16
51149;BMP280;37210;50.058;8.688;2023-05-19T10:09:26;100720.28;;;19.15
51149;BMP280;37210;50.058;8.688;2023-05-19T10:11:56;100730.59;;;19.87
51149;BMP280;37210;50.058;8.688;2023-05-19T10:14:25;100765.69;;;19.98
51149;BMP280;37210;50.058;8.688;2023-05-19T10:16:54;100756.59;;;19.76
51149;BMP280;37210;50.058;8.688;2023-05-19T10:19:23;100777.88;;;19.44
51149;BMP280;37210;50.058;8.688;2023-05-19T10:21:53;100754.13;;;19.70
51149;BMP280;37210;50.058;8.688;2023-05-19T10:24:22;100727.13;;;19.85
51149;BMP280;37210;50.058;8.688;2023-05-19T10:26:52;100745.00;;;20.89
51149;BMP280;37210;50.058;8.688;2023-05-19T10:29:27;100728.69;;;20.73
51149;BMP280;37210;50.058;8.688;2023-05-19T10:32:00;100744.16;;;20.62
51149;BMP280;37210;50.058;8.688;2023-05-19T10:34:50;100731.91;;;20.57
51149;BMP280;37210;50.058;8.688;2023-05-19T10:37:36;100738.38;;;20.50
51149;BMP280;37210;50.058;8.688;2023-05-19T10:40:17;100739.31;;;19.63
51149;BMP280;37210;50.058;8.688;2023-05-19T10:43:01;100743.53;;;19.39
51149;BMP280;37210;50.058;8.688;2023-05-19T10:45:44;100744.41;;;19.40
51149;BMP280;37210;50.058;8.688;2023-05-19T10:48:15;100738.31;;;19.94
51149;BMP280;37210;50.058;8.688;2023-05-19T10:50:43;100724.25;;;19.31
51149;BMP280;37210;50.058;8.688;2023-05-19T10:53:15;100738.94;;;19.12
51149;BMP280;37210;50.058;8.688;2023-05-19T10:55:49;100735.63;;;19.36
51149;BMP280;37210;50.058;8.688;2023-05-19T10:58:38;100704.88;;;19.29
51149;BMP280;37210;50.058;8.688;2023-05-19T11:01:07;100724.88;;;19.71
51149;BMP280;37210;50.058;8.688;2023-05-19T11:03:46;100720.59;;;19.03
51149;BMP280;37210;50.058;8.688;2023-05-19T11:06:19;100716.19;;;19.66
51149;BMP280;37210;50.058;8.688;2023-05-19T11:08:56;100724.84;;;20.02
51149;BMP280;37210;50.058;8.688;2023-05-19T11:11:43;100733.38;;;19.82
51149;BMP280;37210;50.058;8.688;2023-05-19T11:14:13;100722.94;;;20.06
51149;BMP280;37210;50.058;8.688;2023-05-19T11:16:45;100730.47;;;19.62
51149;BMP280;37210;50.058;8.688;2023-05-19T11:19:18;100720.38;;;20.03
51149;BMP280;37210;50.058;8.688;2023-05-19T11:21:46;100713.63;;;20.48
51149;BMP280;37210;50.058;8.688;2023-05-19T11:24:37;100699.44;;;20.73
51149;BMP280;37210;50.058;8.688;2023-05-19T11:27:23;100704.22;;;20.10
51149;BMP280;37210;50.058;8.688;2023-05-19T11:29:53;100717.53;;;20.64
51149;BMP280;37210;50.058;8.688;2023-05-19T11:32:25;100699.88;;;20.61
51149;BMP280;37210;50.058;8.688;2023-05-19T11:34:54;100697.81;;;20.69
51149;BMP280;37210;50.058;8.688;2023-05-19T11:37:22;100686.44;;;20.66
51149;BMP280;37210;50.058;8.688;2023-05-19T11:39:50;100690.06;;;20.88
51149;BMP280;37210;50.058;8.688;2023-05-19T11:42:20;100681.13;;;21.17
51149;BMP280;37210;50.058;8.688;2023-05-19T11:44:47;100695.81;;;20.24
51149;BMP280;37210;50.058;8.688;2023-05-19T11:47:15;100696.03;;;20.16
51149;BMP280;37210;50.058;8.688;2023-05-19T11:49:43;100692.66;;;20.11
51149;BMP280;37210;50.058;8.688;2023-05-19T11:52:11;100687.56;;;19.77
51149;BMP280;37210;50.058;8.688;2023-05-19T11:54:39;100654.59;;;20.64
51149;BMP280;37210;50.058;8.688;2023-05-19T11:57:08;100665.00;;;20.70
51149;BMP280;37210;50.058;8.688;2023-05-19T11:59:37;100671.56;;;20.34
51149;BMP280;37210;50.058;8.688;2023-05-19T12:02:16;100679.59;;;19.76
51149;BMP280;37210;50.058;8.688;2023-05-19T12:04:44;100676.09;;;20.03
51149;BMP280;37210;50.058;8.688;2023-05-19T12:07:12;100668.09;;;20.05
51149;BMP280;37210;50.058;8.688;2023-05-19T12:09:43;100667.69;;;20.44
51149;BMP280;37210;50.058;8.688;2023-05-19T12:12:12;100661.84;;;21.10
51149;BMP280;37210;50.058;8.688;2023-05-19T12:14:42;100648.78;;;21.04
51149;BMP280;37210;50.058;8.688;2023-05-19T12:17:11;100662.66;;;21.12
51149;BMP280;37210;50.058;8.688;2023-05-19T12:19:39;100673.28;;;21.12
51149;BMP280;37210;50.058;8.688;2023-05-19T12:22:09;100653.00;;;20.59
51149;BMP280;37210;50.058;8.688;2023-05-19T12:24:38;100655.19;;;20.46
51149;BMP280;37210;50.058;8.688;2023-05-19T12:27:10;100677.91;;;20.30
51149;BMP280;37210;50.058;8.688;2023-05-19T12:29:38;100657.09;;;20.15
51149;BMP280;37210;50.058;8.688;2023-05-19T12:32:08;100647.97;;;20.25
51149;BMP280;37210;50.058;8.688;2023-05-19T12:34:36;100672.00;;;20.48
51149;BMP280;37210;50.058;8.688;2023-05-19T12:37:04;100662.50;;;20.91
51149;BMP280;37210;50.058;8.688;2023-05-19T12:39:32;100669.28;;;20.50
51149;BMP280;37210;50.058;8.688;2023-05-19T12:42:00;100672.97;;;20.18
51149;BMP280;37210;50.058;8.688;2023-05-19T12:44:28;100666.56;;;19.98
51149;BMP280;37210;50.058;8.688;2023-05-19T12:46:57;100658.94;;;20.13
51149;BMP280;37210;50.058;8.688;2023-05-19T12:49:26;100661.44;;;20.18
51149;BMP280;37210;50.058;8.688;2023-05-19T12:51:54;100634.88;;;20.19
51149;BMP280;37210;50.058;8.688;2023-05-19T12:54:21;100645.91;;;20.59
51149;BMP280;37210;50.058;8.688;2023-05-19T12:56:49;100632.41;;;20.90
51149;BMP280;37210;50.058;8.688;2023-05-19T12:59:21;100630.88;;;20.83
51149;BMP280;37210;50.058;8.688;2023-05-19T13:01:56;100652.63;;;20.69
51149;BMP280;37210;50.058;8.688;2023-05-19T13:04:27;100655.78;;;20.81
51149;BMP280;37210;50.058;8.688;2023-05-19T13:06:54;100589.28;;;19.79
51149;BMP280;37210;50.058;8.688;2023-05-19T13:09:22;100610.88;;;19.94
51149;BMP280;37210;50.058;8.688;2023-05-19T13:11:54;100494.75;;;19.73
51149;BMP280;37210;50.058;8.688;2023-05-19T13:14:35;100640.50;;;20.62
51149;BMP280;37210;50.058;8.688;2023-05-19T13:17:09;100389.81;;;19.39
51149;BMP280;37210;50.058;8.688;2023-05-19T13:19:45;100414.06;;;19.79
51149;BMP280;37210;50.058;8.688;2023-05-19T13:22:24;100588.94;;;20.91
51149;BMP280;37210;50.058;8.688;2023-05-19T13:25:01;100579.97;;;20.44
51149;BMP280;37210;50.058;8.688;2023-05-19T13:27:31;100609.69;;;20.82
51149;BMP280;37210;50.058;8.688;2023-05-19T13:30:04;100583.41;;;20.73
51149;BMP280;37210;50.058;8.688;2023-05-19T13:32:36;100534.81;;;20.44
51149;BMP280;37210;50.058;8.688;2023-05-19T13:35:19;100597.06;;;20.87
51149;BMP280;37210;50.058;8.688;2023-05-19T13:37:54;100474.50;;;20.46
51149;BMP280;37210;50.058;8.688;2023-05-19T13:40:23;100629.34;;;21.01
51149;BMP280;37210;50.058;8.688;2023-05-19T13:42:56;100639.16;;;20.76
51149;BMP280;37210;50.058;8.688;2023-05-19T13:45:25;100475.75;;;20.12
51149;BMP280;37210;50.058;8.688;2023-05-19T13:48:05;100620.91;;;21.14
51149;BMP280;37210;50.058;8.688;2023-05-19T13:50:38;100570.03;;;21.45
51149;BMP280;37210;50.058;8.688;2023-05-19T13:53:06;100610.63;;;22.16
51149;BMP280;37210;50.058;8.688;2023-05-19T13:55:34;100365.63;;;20.22
51149;BMP280;37210;50.058;8.688;2023-05-19T13:58:12;100424.16;;;20.19
51149;BMP280;37210;50.058;8.688;2023-05-19T14:00:44;100476.03;;;20.53
51149;BMP280;37210;50.058;8.688;2023-05-19T14:03:12;100567.34;;;20.99
51149;BMP280;37210;50.058;8.688;2023-05-19T14:05:48;100626.09;;;20.93
51149;BMP280;37210;50.058;8.688;2023-05-19T14:08:42;100621.00;;;20.62
51149;BMP280;37210;50.058;8.688;2023-05-19T14:11:56;100472.13;;;19.89
51149;BMP280;37210;50.058;8.688;2023-05-19T14:14:50;100438.72;;;20.07
51149;BMP280;37210;50.058;8.688;2023-05-19T14:17:36;100347.16;;;19.19